createdAt,value
2022-12-03T00:00:14.230Z,86.88
2022-12-03T00:02:42.655Z,86.68
2022-12-03T00:05:11.132Z,86.71
2022-12-03T00:07:39.425Z,86.83
2022-12-03T00:10:11.190Z,86.83
2022-12-03T00:12:39.438Z,86.72
2022-12-03T00:15:09.369Z,86.82
2022-12-03T00:17:37.593Z,86.83
2022-12-03T00:20:07.253Z,86.76
2022-12-03T00:22:35.647Z,86.73
2022-12-03T00:25:03.841Z,86.82
2022-12-03T00:27:33.341Z,86.86
2022-12-03T00:30:01.474Z,86.67
2022-12-03T00:32:29.652Z,86.69
2022-12-03T00:34:57.777Z,86.66
2022-12-03T00:37:26.075Z,86.80
2022-12-03T00:39:54.204Z,86.84
2022-12-03T00:42:22.366Z,86.81
2022-12-03T00:44:52.289Z,86.87
2022-12-03T00:47:20.569Z,86.58
2022-12-03T00:49:48.746Z,86.70
2022-12-03T00:52:16.867Z,86.57
2022-12-03T00:54:45.349Z,86.78
2022-12-03T00:57:13.577Z,86.77
2022-12-03T00:59:41.719Z,86.55
2022-12-03T01:02:12.039Z,86.74
2022-12-03T01:04:40.216Z,86.52
2022-12-03T01:07:08.432Z,86.62
2022-12-03T01:09:36.573Z,86.65
2022-12-03T01:12:05.104Z,86.55
2022-12-03T01:14:33.246Z,86.66
2022-12-03T01:17:01.382Z,86.62
2022-12-03T01:19:30.956Z,86.64
2022-12-03T01:21:59.098Z,86.58
2022-12-03T01:24:27.251Z,86.60
2022-12-03T01:26:55.955Z,86.72
2022-12-03T01:29:24.370Z,86.82
2022-12-03T01:32:09.939Z,86.84
2022-12-03T01:34:39.458Z,86.69
2022-12-03T01:37:07.596Z,86.69
2022-12-03T01:39:35.742Z,86.55
2022-12-03T01:42:04.244Z,86.60
2022-12-03T01:44:34.183Z,86.64
2022-12-03T01:47:04.240Z,86.69
2022-12-03T01:49:40.726Z,86.17
2022-12-03T01:52:13.196Z,86.38
2022-12-03T01:54:43.364Z,86.39
2022-12-03T01:57:19.433Z,86.44
2022-12-03T01:59:47.860Z,86.56
2022-12-03T02:02:21.043Z,86.39
2022-12-03T02:04:49.856Z,86.37
2022-12-03T02:07:25.435Z,86.75
2022-12-03T02:09:54.396Z,86.51
2022-12-03T02:12:26.706Z,86.63
2022-12-03T02:14:55.615Z,86.71
2022-12-03T02:17:24.013Z,86.63
2022-12-03T02:19:52.498Z,86.44
2022-12-03T02:22:30.148Z,86.56
2022-12-03T02:25:09.887Z,86.51
2022-12-03T02:27:38.088Z,86.56
2022-12-03T02:30:07.732Z,86.42
2022-12-03T02:32:35.860Z,86.48
2022-12-03T02:35:04.075Z,86.53
2022-12-03T02:37:34.071Z,86.64
2022-12-03T02:40:07.971Z,86.66
2022-12-03T02:42:37.168Z,86.54
2022-12-03T02:45:08.390Z,86.59
2022-12-03T02:47:40.663Z,86.53
2022-12-03T02:50:10.075Z,86.67
2022-12-03T02:52:38.469Z,86.63
2022-12-03T02:55:09.307Z,86.67
2022-12-03T02:57:39.814Z,86.51
2022-12-03T03:00:10.576Z,86.58
2022-12-03T03:02:39.406Z,86.66
2022-12-03T03:05:09.146Z,86.72
2022-12-03T03:07:38.012Z,86.76
2022-12-03T03:10:10.506Z,86.52
2022-12-03T03:12:39.519Z,86.66
2022-12-03T03:15:10.083Z,86.66
2022-12-03T03:17:54.147Z,86.74
2022-12-03T03:20:22.667Z,86.54
2022-12-03T03:22:50.772Z,86.58
2022-12-03T03:25:22.473Z,86.67
2022-12-03T03:27:50.669Z,86.53
2022-12-03T03:30:18.886Z,86.66
2022-12-03T03:32:47.015Z,86.45
2022-12-03T03:35:15.389Z,86.38
2022-12-03T03:37:43.648Z,86.57
2022-12-03T03:40:12.747Z,86.32
2022-12-03T03:42:42.403Z,86.29
2022-12-03T03:45:11.156Z,86.34
2022-12-03T03:47:39.664Z,86.23
2022-12-03T03:50:10.803Z,86.20
2022-12-03T03:52:40.066Z,86.33
2022-12-03T03:55:09.431Z,86.44
2022-12-03T03:57:37.887Z,86.37
2022-12-03T04:00:09.408Z,86.00
2022-12-03T04:02:37.668Z,86.11
2022-12-03T04:05:07.646Z,86.24
2022-12-03T04:07:35.887Z,86.33
2022-12-03T04:10:24.692Z,86.44
2022-12-03T04:12:57.825Z,86.51
2022-12-03T04:15:27.889Z,86.28
2022-12-03T04:18:13.818Z,86.55
2022-12-03T04:20:41.947Z,86.81
2022-12-03T04:23:09.320Z,86.70
2022-12-03T04:25:54.742Z,86.75
2022-12-03T04:28:40.266Z,86.70
2022-12-03T04:31:24.419Z,86.81
2022-12-03T04:34:10.241Z,86.82
2022-12-03T04:36:38.354Z,86.93
2022-12-03T04:39:06.535Z,86.96
2022-12-03T04:41:34.679Z,87.15
2022-12-03T04:44:20.133Z,87.08
2022-12-03T04:46:49.661Z,87.08
2022-12-03T04:49:17.812Z,87.05
2022-12-03T04:51:45.978Z,87.09
2022-12-03T04:54:14.421Z,87.06
2022-12-03T04:56:42.647Z,87.05
2022-12-03T04:59:15.728Z,87.03
2022-12-03T05:01:44.977Z,87.03
2022-12-03T05:04:15.761Z,87.07
2022-12-03T05:06:44.494Z,87.17
2022-12-03T05:09:12.983Z,87.09
2022-12-03T05:11:41.207Z,86.99
2022-12-03T05:14:09.536Z,86.91
2022-12-03T05:16:37.955Z,86.89
2022-12-03T05:19:07.231Z,87.05
2022-12-03T05:21:35.789Z,86.91
2022-12-03T05:24:04.106Z,87.03
2022-12-03T05:26:32.248Z,86.89
2022-12-03T05:29:00.412Z,86.82
2022-12-03T05:31:28.618Z,86.85
2022-12-03T05:33:56.829Z,87.01
2022-12-03T05:36:25.582Z,87.00
2022-12-03T05:38:55.135Z,86.99
2022-12-03T05:41:40.810Z,87.03
2022-12-03T05:44:08.949Z,87.05
2022-12-03T05:46:37.113Z,87.15
2022-12-03T05:49:05.251Z,87.08
2022-12-03T05:51:33.410Z,86.89
2022-12-03T05:54:02.944Z,86.80
2022-12-03T05:56:31.093Z,86.80
2022-12-03T05:58:59.208Z,86.78
2022-12-03T06:01:27.333Z,86.81
2022-12-03T06:03:55.600Z,86.75
2022-12-03T06:06:23.796Z,86.86
2022-12-03T06:08:52.009Z,86.93
2022-12-03T06:11:21.582Z,87.00
2022-12-03T06:13:49.871Z,86.89
2022-12-03T06:16:18.037Z,86.99
2022-12-03T06:18:46.240Z,86.97
2022-12-03T06:21:14.413Z,87.00
2022-12-03T06:23:44.791Z,86.96
2022-12-03T06:26:13.189Z,86.79
2022-12-03T06:28:46.286Z,86.78
2022-12-03T06:31:14.589Z,86.82
2022-12-03T06:33:42.820Z,86.85
2022-12-03T06:36:11.075Z,86.76
2022-12-03T06:38:39.437Z,86.79
2022-12-03T06:41:07.597Z,86.70
2022-12-03T06:43:35.723Z,86.72
2022-12-03T06:46:05.475Z,86.82
2022-12-03T06:48:33.590Z,86.88
2022-12-03T06:51:01.744Z,86.92
2022-12-03T06:53:29.874Z,86.90
2022-12-03T06:55:57.985Z,86.80
2022-12-03T06:58:26.117Z,86.87
2022-12-03T07:00:54.267Z,86.85
2022-12-03T07:03:24.015Z,86.85
2022-12-03T07:05:52.223Z,86.92
2022-12-03T07:08:20.397Z,86.94
2022-12-03T07:10:48.522Z,86.97
2022-12-03T07:13:16.823Z,86.96
2022-12-03T07:15:44.995Z,87.04
2022-12-03T07:18:13.295Z,87.11
2022-12-03T07:20:42.842Z,87.00
2022-12-03T07:23:10.958Z,87.12
2022-12-03T07:25:39.102Z,86.99
2022-12-03T07:28:07.326Z,87.07
2022-12-03T07:30:35.454Z,87.10
2022-12-03T07:33:03.829Z,87.19
2022-12-03T07:35:32.000Z,87.11
2022-12-03T07:38:01.545Z,87.11
2022-12-03T07:40:29.701Z,87.16
2022-12-03T07:42:57.831Z,87.09
2022-12-03T07:45:25.979Z,87.22
2022-12-03T07:47:54.087Z,87.19
2022-12-03T07:50:22.344Z,87.16
2022-12-03T07:52:50.527Z,87.07
2022-12-03T07:55:20.063Z,87.11
2022-12-03T07:57:48.268Z,87.18
2022-12-03T08:00:17.254Z,87.12
2022-12-03T08:02:45.437Z,87.15
2022-12-03T08:05:13.689Z,86.83
2022-12-03T08:07:41.881Z,87.02
2022-12-03T08:10:10.568Z,87.05
2022-12-03T08:12:43.717Z,87.06
2022-12-03T08:15:14.393Z,87.27
2022-12-03T08:17:43.360Z,87.05
2022-12-03T08:20:18.515Z,87.12
2022-12-03T08:22:48.362Z,87.02
2022-12-03T08:25:20.242Z,87.00
2022-12-03T08:27:49.950Z,87.19
2022-12-03T08:30:18.922Z,87.12
2022-12-03T08:32:47.117Z,87.03
2022-12-03T08:35:22.061Z,87.04
2022-12-03T08:37:56.977Z,86.85
2022-12-03T08:40:29.247Z,86.98
2022-12-03T08:42:58.783Z,87.07
2022-12-03T08:45:40.970Z,87.14
2022-12-03T08:48:33.527Z,87.09
2022-12-03T08:51:04.574Z,87.30
2022-12-03T08:53:35.004Z,87.36
2022-12-03T08:56:05.904Z,87.43
2022-12-03T08:58:42.872Z,87.33
2022-12-03T09:01:28.384Z,87.34
2022-12-03T09:03:57.669Z,87.67
2022-12-03T09:06:25.863Z,87.35
2022-12-03T09:08:54.000Z,87.40
2022-12-03T09:11:22.124Z,87.40
2022-12-03T09:13:51.688Z,87.35
2022-12-03T09:16:19.926Z,87.33
2022-12-03T09:18:48.089Z,87.50
2022-12-03T09:21:16.197Z,87.53
2022-12-03T09:23:44.330Z,87.52
2022-12-03T09:26:12.479Z,87.51
2022-12-03T09:28:40.625Z,87.51
2022-12-03T09:31:10.107Z,87.48
2022-12-03T09:33:38.273Z,87.59
2022-12-03T09:36:06.948Z,87.66
2022-12-03T09:38:35.245Z,87.74
2022-12-03T09:41:03.438Z,87.66
2022-12-03T09:44:02.898Z,87.80
2022-12-03T09:46:23.749Z,87.57
2022-12-03T09:48:52.082Z,87.58
2022-12-03T09:51:20.358Z,87.62
2022-12-03T09:53:48.706Z,87.65
2022-12-03T09:56:23.079Z,87.67
2022-12-03T09:58:51.644Z,87.61
2022-12-03T10:01:20.005Z,87.65
2022-12-03T10:03:51.663Z,87.62
2022-12-03T10:06:21.623Z,87.36
2022-12-03T10:08:52.401Z,87.69
2022-12-03T10:11:22.548Z,87.37
2022-12-03T10:13:51.352Z,87.39
2022-12-03T10:16:21.302Z,87.51
2022-12-03T10:18:52.462Z,87.51
2022-12-03T10:21:24.182Z,87.55
2022-12-03T10:24:20.523Z,87.71
2022-12-03T10:26:50.366Z,87.63
2022-12-03T10:29:20.141Z,87.63
2022-12-03T10:31:55.751Z,87.61
2022-12-03T10:34:31.661Z,87.58
2022-12-03T10:37:12.535Z,87.62
2022-12-03T10:39:57.945Z,87.69
2022-12-03T10:42:26.868Z,87.57
2022-12-03T10:45:19.618Z,87.66
2022-12-03T10:48:07.055Z,87.71
2022-12-03T10:50:37.008Z,87.82
2022-12-03T10:53:06.050Z,87.73
2022-12-03T10:55:38.760Z,87.85
2022-12-03T10:58:06.959Z,87.77
2022-12-03T11:00:35.706Z,87.81
2022-12-03T11:03:03.914Z,87.86
2022-12-03T11:05:32.122Z,87.89
2022-12-03T11:08:01.760Z,87.97
2022-12-03T11:10:29.985Z,87.82
2022-12-03T11:13:44.604Z,87.74
2022-12-03T11:16:13.132Z,87.74
2022-12-03T11:19:01.418Z,87.68
2022-12-03T11:21:30.004Z,87.65
2022-12-03T11:24:22.155Z,87.67
2022-12-03T11:27:26.866Z,87.71
2022-12-03T11:30:02.216Z,87.69
2022-12-03T11:33:09.400Z,87.71
2022-12-03T11:36:31.807Z,87.65
2022-12-03T11:39:04.876Z,87.56
2022-12-03T11:41:35.940Z,87.49
2022-12-03T11:44:33.774Z,87.73
2022-12-03T11:47:09.708Z,87.82
2022-12-03T11:49:45.478Z,87.90
2022-12-03T11:52:25.176Z,87.82
2022-12-03T11:54:55.643Z,87.84
2022-12-03T11:57:31.655Z,87.78
2022-12-03T12:00:07.554Z,87.68
2022-12-03T12:02:35.767Z,87.74
2022-12-03T12:05:22.327Z,87.52
2022-12-03T12:07:51.001Z,87.58
2022-12-03T12:10:41.944Z,87.59
2022-12-03T12:13:49.066Z,87.52
2022-12-03T12:16:44.654Z,87.41
2022-12-03T12:19:43.581Z,87.45
2022-12-03T12:22:20.623Z,87.61
2022-12-03T12:24:52.370Z,87.64
2022-12-03T12:27:22.420Z,87.50
2022-12-03T12:29:57.578Z,87.75
2022-12-03T12:32:28.949Z,87.72
2022-12-03T12:35:01.222Z,87.75
2022-12-03T12:37:35.098Z,87.69
2022-12-03T12:40:11.100Z,87.59
2022-12-03T12:42:43.872Z,87.67
2022-12-03T12:45:18.084Z,87.57
2022-12-03T12:47:54.633Z,87.71
2022-12-03T12:50:22.833Z,87.65
2022-12-03T12:52:56.084Z,87.47
2022-12-03T12:55:24.383Z,87.56
2022-12-03T12:57:52.683Z,87.45
2022-12-03T13:00:24.554Z,87.55
2022-12-03T13:02:56.029Z,87.45
2022-12-03T13:05:27.003Z,87.48
2022-12-03T13:07:55.775Z,87.52
2022-12-03T13:10:38.888Z,87.63
2022-12-03T13:13:24.848Z,87.57
2022-12-03T13:16:02.608Z,87.50
2022-12-03T13:18:42.529Z,87.49
2022-12-03T13:21:37.593Z,87.49
2022-12-03T13:24:27.314Z,87.60
2022-12-03T13:26:55.615Z,87.80
2022-12-03T13:29:24.035Z,87.68
2022-12-03T13:31:55.409Z,87.82
2022-12-03T13:34:26.064Z,87.85
2022-12-03T13:36:57.965Z,87.77
2022-12-03T13:39:30.475Z,87.82
2022-12-03T13:42:17.460Z,87.92
2022-12-03T13:44:48.585Z,87.91
2022-12-03T13:47:20.643Z,87.97
2022-12-03T13:49:52.942Z,88.04
2022-12-03T13:52:23.440Z,87.99
2022-12-03T13:54:53.921Z,88.05
2022-12-03T13:57:22.090Z,88.17
2022-12-03T13:59:50.389Z,88.02
2022-12-03T14:02:19.965Z,87.97
2022-12-03T14:04:48.238Z,87.97
2022-12-03T14:07:16.368Z,88.13
2022-12-03T14:09:44.557Z,88.16
2022-12-03T14:12:28.898Z,88.08
2022-12-03T14:14:57.224Z,88.17
2022-12-03T14:17:26.753Z,88.22
2022-12-03T14:19:54.984Z,88.18
2022-12-03T14:22:25.322Z,88.16
2022-12-03T14:24:54.081Z,88.14
2022-12-03T14:27:22.785Z,88.09
2022-12-03T14:29:51.332Z,88.17
2022-12-03T14:32:19.795Z,88.14
2022-12-03T14:34:49.624Z,88.12
2022-12-03T14:37:17.922Z,88.12
2022-12-03T14:39:46.088Z,88.04
2022-12-03T14:42:14.268Z,88.11
2022-12-03T14:44:42.896Z,87.97
2022-12-03T14:47:11.113Z,88.15
2022-12-03T14:49:39.290Z,87.98
2022-12-03T14:52:12.137Z,87.88
2022-12-03T14:54:42.484Z,87.95
2022-12-03T14:57:12.367Z,88.09
2022-12-03T14:59:40.660Z,88.07
2022-12-03T15:02:09.364Z,88.08
2022-12-03T15:04:37.583Z,88.07
2022-12-03T15:07:06.192Z,88.13
2022-12-03T15:09:36.145Z,88.25
2022-12-03T15:12:05.250Z,88.27
2022-12-03T15:14:33.448Z,88.13
2022-12-03T15:17:01.666Z,88.17
2022-12-03T15:19:29.911Z,88.37
2022-12-03T15:21:58.060Z,88.41
2022-12-03T15:24:26.197Z,88.34
2022-12-03T15:26:56.087Z,88.39
2022-12-03T15:29:24.626Z,88.57
2022-12-03T15:31:52.849Z,88.50
2022-12-03T15:34:23.105Z,88.71
2022-12-03T15:36:51.767Z,88.53
2022-12-03T15:39:19.992Z,88.58
2022-12-03T15:41:48.184Z,88.46
2022-12-03T15:44:17.707Z,88.46
2022-12-03T15:46:45.974Z,88.54
2022-12-03T15:49:14.307Z,88.46
2022-12-03T15:51:42.466Z,88.53
2022-12-03T15:54:12.237Z,88.50
2022-12-03T15:56:40.525Z,88.55
2022-12-03T15:59:08.751Z,88.46
2022-12-03T16:01:38.559Z,88.48
2022-12-03T16:04:06.769Z,88.41
2022-12-03T16:06:34.902Z,88.53
2022-12-03T16:09:03.123Z,88.54
2022-12-03T16:11:31.352Z,88.49
2022-12-03T16:13:59.564Z,88.52
2022-12-03T16:16:27.767Z,88.47
2022-12-03T16:18:57.364Z,88.44
2022-12-03T16:21:27.219Z,88.41
2022-12-03T16:23:56.250Z,88.51
2022-12-03T16:26:24.433Z,88.47
2022-12-03T16:28:52.759Z,88.42
2022-12-03T16:31:21.627Z,88.50
2022-12-03T16:33:50.213Z,88.47
2022-12-03T16:36:19.796Z,88.59
2022-12-03T16:38:47.925Z,88.56
2022-12-03T16:41:16.051Z,88.55
2022-12-03T16:43:46.982Z,88.54
2022-12-03T16:46:26.742Z,88.55
2022-12-03T16:48:56.450Z,88.62
2022-12-03T16:51:26.543Z,88.47
2022-12-03T16:53:54.944Z,88.44
2022-12-03T16:56:23.092Z,88.54
2022-12-03T16:58:51.252Z,88.55
2022-12-03T17:01:19.450Z,88.62
2022-12-03T17:03:47.706Z,88.59
2022-12-03T17:06:15.840Z,88.54
2022-12-03T17:08:49.320Z,88.60
2022-12-03T17:11:18.822Z,88.51
2022-12-03T17:13:47.123Z,88.71
2022-12-03T17:16:15.420Z,88.49
2022-12-03T17:18:43.781Z,88.59
2022-12-03T17:21:12.038Z,88.63
2022-12-03T17:23:40.190Z,88.50
2022-12-03T17:26:09.738Z,88.55
2022-12-03T17:28:37.880Z,88.69
2022-12-03T17:31:06.325Z,88.76
2022-12-03T17:33:34.473Z,88.79
2022-12-03T17:36:02.723Z,88.70
2022-12-03T17:38:37.187Z,88.69
2022-12-03T17:41:08.210Z,88.69
2022-12-03T17:43:37.738Z,88.77
2022-12-03T17:46:06.730Z,88.82
2022-12-03T17:48:35.543Z,88.88
2022-12-03T17:51:03.686Z,88.64
2022-12-03T17:53:31.851Z,88.67
2022-12-03T17:55:59.988Z,88.69
2022-12-03T17:58:28.604Z,88.82
2022-12-03T18:01:02.410Z,88.69
2022-12-03T18:03:31.698Z,88.67
2022-12-03T18:06:00.116Z,88.77
2022-12-03T18:08:28.380Z,88.75
2022-12-03T18:10:56.834Z,88.72
2022-12-03T18:13:25.016Z,88.88
2022-12-03T18:15:53.208Z,88.68
2022-12-03T18:18:22.834Z,88.76
2022-12-03T18:20:51.092Z,88.74
2022-12-03T18:23:19.318Z,88.71
2022-12-03T18:25:47.489Z,88.66
2022-12-03T18:28:15.652Z,88.85
2022-12-03T18:30:49.116Z,89.05
2022-12-03T18:33:21.312Z,88.79
2022-12-03T18:35:53.522Z,88.85
2022-12-03T18:38:22.179Z,88.66
2022-12-03T18:40:50.903Z,88.65
2022-12-03T18:43:19.310Z,88.78
2022-12-03T18:45:47.437Z,88.68
2022-12-03T18:48:16.684Z,88.77
2022-12-03T18:50:45.131Z,88.74
2022-12-03T18:53:16.096Z,88.64
2022-12-03T18:55:46.248Z,88.73
2022-12-03T18:58:14.400Z,88.67
2022-12-03T19:00:42.760Z,88.75
2022-12-03T19:03:11.142Z,88.69
2022-12-03T19:05:39.379Z,88.72
2022-12-03T19:08:14.432Z,88.69
2022-12-03T19:10:44.367Z,88.68
2022-12-03T19:13:12.569Z,88.60
2022-12-03T19:15:41.122Z,88.71
2022-12-03T19:18:09.276Z,88.51
2022-12-03T19:20:40.434Z,88.45
2022-12-03T19:23:08.606Z,88.43
2022-12-03T19:25:36.972Z,88.35
2022-12-03T19:28:06.753Z,88.40
2022-12-03T19:30:34.883Z,88.31
2022-12-03T19:33:03.049Z,88.43
2022-12-03T19:35:32.220Z,88.39
2022-12-03T19:38:00.391Z,88.33
2022-12-03T19:40:28.546Z,88.09
2022-12-03T19:42:56.684Z,88.14
2022-12-03T19:45:26.289Z,88.28
2022-12-03T19:47:54.461Z,88.13
2022-12-03T19:50:23.686Z,88.11
2022-12-03T19:52:52.018Z,88.06
2022-12-03T19:55:20.669Z,88.15
2022-12-03T19:57:49.212Z,88.06
2022-12-03T20:00:17.855Z,88.07
2022-12-03T20:02:49.154Z,88.05
2022-12-03T20:05:17.487Z,88.07
2022-12-03T20:07:46.036Z,88.01
2022-12-03T20:10:14.251Z,87.96
2022-12-03T20:12:42.394Z,87.87
2022-12-03T20:15:11.518Z,88.09
2022-12-03T20:17:39.733Z,87.98
2022-12-03T20:20:10.564Z,88.04
2022-12-03T20:22:38.772Z,87.97
2022-12-03T20:25:07.899Z,87.88
2022-12-03T20:27:36.148Z,87.78
2022-12-03T20:30:05.011Z,87.31
2022-12-03T20:32:33.267Z,87.11
2022-12-03T20:35:03.225Z,87.36
2022-12-03T20:37:36.037Z,87.48
2022-12-03T20:40:04.680Z,87.55
2022-12-03T20:42:32.839Z,87.25
2022-12-03T20:45:00.994Z,87.56
2022-12-03T20:47:29.167Z,87.49
2022-12-03T20:49:57.513Z,87.38
2022-12-03T20:52:25.764Z,87.28
2022-12-03T20:54:55.275Z,87.09
2022-12-03T20:57:23.418Z,87.31
2022-12-03T20:59:52.025Z,87.35
2022-12-03T21:02:20.630Z,87.25
2022-12-03T21:04:48.915Z,87.32
2022-12-03T21:07:17.056Z,87.22
2022-12-03T21:09:45.203Z,86.79
2022-12-03T21:12:14.721Z,87.21
2022-12-03T21:14:42.855Z,87.32
2022-12-03T21:17:11.066Z,86.18
2022-12-03T21:19:39.503Z,86.48
2022-12-03T21:22:08.093Z,86.00
2022-12-03T21:24:36.272Z,86.40
2022-12-03T21:27:04.575Z,86.75
2022-12-03T21:29:34.099Z,86.93
2022-12-03T21:32:02.245Z,86.59
2022-12-03T21:34:36.063Z,86.14
2022-12-03T21:37:05.580Z,86.36
2022-12-03T21:39:33.723Z,86.35
2022-12-03T21:42:34.133Z,86.20
2022-12-03T21:44:51.341Z,86.29
2022-12-03T21:47:19.613Z,86.44
2022-12-03T21:49:47.857Z,86.54
2022-12-03T21:52:15.999Z,86.60
2022-12-03T21:54:44.312Z,86.48
2022-12-03T21:57:12.555Z,86.77
2022-12-03T21:59:40.703Z,86.43
2022-12-03T22:02:10.602Z,86.73
2022-12-03T22:04:39.783Z,86.35
2022-12-03T22:07:07.975Z,85.96
2022-12-03T22:09:36.274Z,85.90
2022-12-03T22:12:04.698Z,86.39
2022-12-03T22:14:32.860Z,86.20
2022-12-03T22:17:01.008Z,86.02
2022-12-03T22:19:30.591Z,86.12
2022-12-03T22:21:58.735Z,86.05
2022-12-03T22:24:26.863Z,86.16
2022-12-03T22:26:55.153Z,86.22
2022-12-03T22:29:23.625Z,86.02
2022-12-03T22:31:52.069Z,86.32
2022-12-03T22:34:20.267Z,86.04
2022-12-03T22:36:49.760Z,85.65
2022-12-03T22:39:17.943Z,86.05
2022-12-03T22:41:46.104Z,85.43
2022-12-03T22:44:14.336Z,85.96
2022-12-03T22:46:42.633Z,85.53
2022-12-03T22:49:12.604Z,85.87
2022-12-03T22:51:40.779Z,85.78
2022-12-03T22:54:11.602Z,85.18
2022-12-03T22:56:39.799Z,85.53
2022-12-03T22:59:08.295Z,85.25
2022-12-03T23:01:38.651Z,85.31
2022-12-03T23:04:08.149Z,85.94
2022-12-03T23:06:37.218Z,85.64
2022-12-03T23:09:06.759Z,85.87
2022-12-03T23:11:36.603Z,85.61
2022-12-03T23:14:04.817Z,85.83
2022-12-03T23:16:34.128Z,85.91
2022-12-03T23:19:03.084Z,85.76
2022-12-03T23:21:33.465Z,85.49
2022-12-03T23:24:02.813Z,85.65
2022-12-03T23:26:31.033Z,85.57
2022-12-03T23:29:00.602Z,85.87
2022-12-03T23:31:31.527Z,85.84
2022-12-03T23:34:00.839Z,85.66
2022-12-03T23:36:30.627Z,85.71
2022-12-03T23:38:58.803Z,86.07
2022-12-03T23:41:27.145Z,86.05
2022-12-03T23:43:55.339Z,86.00
2022-12-03T23:46:27.416Z,85.47
2022-12-03T23:48:58.451Z,85.71
2022-12-03T23:51:27.241Z,85.55
2022-12-03T23:53:56.099Z,85.84
2022-12-03T23:56:27.342Z,85.95
2022-12-03T23:58:55.540Z,86.07
